レゾリュート の空港の天気 - METARとTAF

レゾリュート空港 ( CYRB / YRB ) - カナダ ヌナブト準州レゾリュート
飛行場実況気象(Metar)
観測時間10/19 13:00 CDT (10/19 18:00 UTC)
風向・風速北西 7m/s
視程10km以上
天気現象弱い雪
全天を覆う雲 雲底高度 340m
気温-11℃
湿度85%
気圧1013.1hPa
METARCYRB 191800Z 32014KT 12SM -SN OVC011 M11/M13 A2989 RMK SC8 SLP131
過去の天気等 Google飛行場航空写真 Wunderground天気予報

過去48時間のMETAR

飛行場予報(TAF)
発表時間: 10/19 12:48 CDT (10/19 17:48 UTC)
予報対象時間: 19日13時 CDT ~ 20日13時 CDT
風向・風速北北西 8m/s
視程10km以上
全天の8割程度の雲 雲底高度 610m
19日13時 CDT ~ 19日15時 CDT に一時的に
視程6440m
天気現象弱い雪
全天の8割程度の雲 雲底高度 240m
全天を覆う雲 雲底高度 610m
19日15時 CDT から
風向・風速北北西 9m/s 瞬間風速 14m/s
視程3220m
天気現象弱い雪 高い地吹雪
全天を覆う雲 鉛直視程 240m
19日15時 CDT ~ 19日22時 CDT に一時的に
視程10km以上
天気現象弱い雪
全天を覆う雲 雲底高度 460m
19日22時 CDT から
風向・風速北北西 8m/s
視程8050m
天気現象高い地吹雪
全天の8割程度の雲 雲底高度 300m
20日11時 CDT から
風向・風速西北西 5m/s
視程10km以上
天気現象弱い雪
全天の8割程度の雲 雲底高度 610m
20日11時 CDT ~ 20日13時 CDT に一時的に
視程3220m
天気現象弱い雪
全天の8割程度の雲 雲底高度 240m
TAF CYRB 191748Z 1918/2018 33015KT P6SM BKN020
TEMPO 1918/1920 4SM -SN BKN008 OVC020
FM192000 34018G28KT 2SM -SN BLSN VV008
TEMPO 1920/2003 6SM -SN OVC015
FM200300 34015KT 5SM BLSN BKN010
FM201600 30010KT 6SM -SN BKN020
TEMPO 2016/2018 2SM -SN BKN008 RMK NXT FCST BY 200000Z